createdAt,value
2022-10-19T00:00:13.672Z,0
2022-10-19T00:01:14.268Z,0
2022-10-19T00:02:14.934Z,0
2022-10-19T00:03:18.297Z,0
2022-10-19T00:04:17.153Z,0
2022-10-19T00:05:18.548Z,0
2022-10-19T00:06:19.150Z,0
2022-10-19T00:07:19.750Z,0
2022-10-19T00:08:20.415Z,0
2022-10-19T00:09:21.016Z,0
2022-10-19T00:10:21.617Z,0
2022-10-19T00:11:22.218Z,0
2022-10-19T00:12:22.823Z,0
2022-10-19T00:13:23.422Z,0
2022-10-19T00:14:24.025Z,0
2022-10-19T00:15:24.617Z,0
2022-10-19T00:16:25.217Z,0
2022-10-19T00:17:25.816Z,0
2022-10-19T00:18:26.416Z,0
2022-10-19T00:19:27.009Z,0
2022-10-19T00:20:27.612Z,0
2022-10-19T00:21:28.215Z,0
2022-10-19T00:22:28.877Z,0
2022-10-19T00:23:29.475Z,0
2022-10-19T00:24:30.068Z,0
2022-10-19T00:25:30.666Z,0
2022-10-19T00:26:31.264Z,0
2022-10-19T00:27:31.863Z,0
2022-10-19T00:28:32.499Z,0
2022-10-19T00:29:33.103Z,0
2022-10-19T00:30:33.701Z,0
2022-10-19T00:31:34.299Z,0
2022-10-19T00:32:35.275Z,0
2022-10-19T00:33:36.063Z,0
2022-10-19T00:34:36.812Z,0
2022-10-19T00:35:37.408Z,0
2022-10-19T00:36:38.004Z,0
2022-10-19T00:37:38.609Z,0
2022-10-19T00:38:39.317Z,0
2022-10-19T00:39:40.012Z,0
2022-10-19T00:40:40.639Z,0
2022-10-19T00:41:41.235Z,0
2022-10-19T00:42:41.987Z,0
2022-10-19T00:43:42.589Z,0
2022-10-19T00:44:43.239Z,0
2022-10-19T00:45:43.841Z,0
2022-10-19T00:46:44.441Z,0
2022-10-19T00:47:45.041Z,0
2022-10-19T00:48:45.663Z,0
2022-10-19T00:49:46.393Z,0
2022-10-19T00:50:46.988Z,0
2022-10-19T00:51:47.589Z,0
2022-10-19T00:52:48.188Z,0
2022-10-19T00:53:48.855Z,0
2022-10-19T00:54:49.444Z,0
2022-10-19T00:55:50.042Z,0
2022-10-19T00:56:50.640Z,0
2022-10-19T00:58:51.837Z,0
2022-10-19T00:59:52.421Z,0
2022-10-19T01:00:53.061Z,0
2022-10-19T01:01:53.646Z,0
2022-10-19T01:02:54.239Z,0
2022-10-19T01:03:54.830Z,0
2022-10-19T01:04:55.421Z,0
2022-10-19T01:05:56.815Z,0
2022-10-19T01:06:57.408Z,0
2022-10-19T01:07:57.999Z,0
2022-10-19T01:08:58.601Z,0
2022-10-19T01:09:59.244Z,0
2022-10-19T01:10:59.839Z,0
2022-10-19T01:12:00.430Z,0
2022-10-19T01:13:01.022Z,0
2022-10-19T01:14:01.616Z,0
2022-10-19T01:15:02.206Z,0
2022-10-19T01:16:02.804Z,0
2022-10-19T01:17:03.390Z,0
2022-10-19T01:18:03.984Z,0
2022-10-19T01:19:04.581Z,0
2022-10-19T01:20:05.166Z,0
2022-10-19T01:21:05.755Z,0
2022-10-19T01:22:06.350Z,0
2022-10-19T01:23:06.940Z,0
2022-10-19T01:24:07.534Z,0
2022-10-19T01:25:08.125Z,0
2022-10-19T01:26:08.716Z,0
2022-10-19T01:27:09.309Z,0
2022-10-19T01:28:09.901Z,0
2022-10-19T01:29:10.559Z,0
2022-10-19T01:30:11.178Z,0
2022-10-19T01:31:11.769Z,0
2022-10-19T01:32:12.364Z,0
2022-10-19T01:33:12.953Z,0
2022-10-19T01:34:13.547Z,0
2022-10-19T01:35:14.139Z,0
2022-10-19T01:36:14.729Z,0
2022-10-19T01:37:15.321Z,0
2022-10-19T01:38:15.918Z,0
2022-10-19T01:39:16.556Z,0
2022-10-19T01:40:17.148Z,0
2022-10-19T01:41:17.816Z,0
2022-10-19T01:42:18.434Z,0
2022-10-19T01:43:19.025Z,0
2022-10-19T01:44:19.668Z,0
2022-10-19T01:45:21.061Z,0
2022-10-19T01:46:21.659Z,0
2022-10-19T01:47:22.350Z,0
2022-10-19T01:48:22.940Z,0
2022-10-19T01:49:23.532Z,0
2022-10-19T01:50:24.184Z,0
2022-10-19T01:51:24.779Z,0
2022-10-19T01:52:25.382Z,0
2022-10-19T01:53:25.961Z,0
2022-10-19T01:54:26.552Z,0
2022-10-19T01:55:27.145Z,0
2022-10-19T01:56:27.738Z,0
2022-10-19T01:57:28.330Z,0
2022-10-19T01:58:28.924Z,0
2022-10-19T01:59:29.515Z,0
2022-10-19T02:00:30.108Z,0
2022-10-19T02:01:30.698Z,0
2022-10-19T02:02:31.568Z,0
2022-10-19T02:03:32.273Z,0
2022-10-19T02:04:32.867Z,0
2022-10-19T02:05:33.454Z,0
2022-10-19T02:06:34.096Z,0
2022-10-19T02:07:34.745Z,0
2022-10-19T02:08:35.336Z,0
2022-10-19T02:09:35.926Z,0
2022-10-19T02:10:36.518Z,0
2022-10-19T02:11:37.112Z,0
2022-10-19T02:12:37.730Z,0
2022-10-19T02:13:38.373Z,0
2022-10-19T02:14:38.965Z,0
2022-10-19T02:15:39.555Z,0
2022-10-19T02:16:40.145Z,0
2022-10-19T02:17:40.743Z,0
2022-10-19T02:18:41.331Z,0
2022-10-19T02:19:41.921Z,0
2022-10-19T02:20:42.514Z,0
2022-10-19T02:21:43.106Z,0
2022-10-19T02:22:43.696Z,0
2022-10-19T02:23:44.290Z,0
2022-10-19T02:24:44.883Z,0
2022-10-19T02:25:45.530Z,0
2022-10-19T02:26:46.122Z,0
2022-10-19T02:27:46.715Z,0
2022-10-19T02:28:47.307Z,0
2022-10-19T02:29:47.898Z,0
2022-10-19T02:30:48.488Z,0
2022-10-19T02:31:49.080Z,0
2022-10-19T02:32:49.672Z,0
2022-10-19T02:33:50.261Z,0
2022-10-19T02:34:50.854Z,0
2022-10-19T02:35:51.448Z,0
2022-10-19T02:36:52.039Z,0
2022-10-19T02:37:52.630Z,0
2022-10-19T02:38:53.222Z,0
2022-10-19T02:39:53.813Z,0
2022-10-19T02:40:54.406Z,0
2022-10-19T02:41:55.152Z,0
2022-10-19T02:42:55.740Z,0
2022-10-19T02:43:56.332Z,0
2022-10-19T02:44:56.924Z,0
2022-10-19T02:45:57.564Z,0
2022-10-19T02:46:58.157Z,0
2022-10-19T02:47:58.748Z,0
2022-10-19T02:48:59.491Z,0
2022-10-19T02:50:00.140Z,0
2022-10-19T02:51:00.786Z,0
2022-10-19T02:52:01.374Z,0
2022-10-19T02:53:01.966Z,0
2022-10-19T02:54:05.009Z,0
2022-10-19T02:55:04.149Z,0
2022-10-19T02:56:04.744Z,0
2022-10-19T02:57:05.340Z,0
2022-10-19T02:58:06.089Z,0
2022-10-19T02:59:06.682Z,0
2022-10-19T03:00:07.273Z,0
2022-10-19T03:01:07.939Z,0
2022-10-19T03:02:08.525Z,0
2022-10-19T03:03:09.121Z,0
2022-10-19T03:04:09.708Z,0
2022-10-19T03:05:10.302Z,0
2022-10-19T03:06:10.889Z,0
2022-10-19T03:07:11.481Z,0
2022-10-19T03:08:12.074Z,0
2022-10-19T03:09:12.666Z,0
2022-10-19T03:10:13.254Z,0
2022-10-19T03:11:13.845Z,0
2022-10-19T03:12:14.441Z,0
2022-10-19T03:13:15.027Z,0
2022-10-19T03:14:15.623Z,0
2022-10-19T03:15:16.213Z,0
2022-10-19T03:16:16.804Z,0
2022-10-19T03:17:17.397Z,0
2022-10-19T03:18:18.198Z,0
2022-10-19T03:19:18.793Z,0
2022-10-19T03:20:19.385Z,0
2022-10-19T03:21:20.042Z,0
2022-10-19T03:22:20.628Z,0
2022-10-19T03:23:21.217Z,0
2022-10-19T03:24:21.811Z,0
2022-10-19T03:25:22.473Z,0
2022-10-19T03:26:23.067Z,0
2022-10-19T03:27:23.660Z,0
2022-10-19T03:28:24.257Z,0
2022-10-19T03:29:24.905Z,0
2022-10-19T03:30:25.497Z,0
2022-10-19T03:31:26.090Z,0
2022-10-19T03:32:26.681Z,0
2022-10-19T03:33:27.284Z,0
2022-10-19T03:34:27.864Z,0
2022-10-19T03:35:28.514Z,0
2022-10-19T03:36:29.107Z,0
2022-10-19T03:37:29.699Z,0
2022-10-19T03:38:30.352Z,0
2022-10-19T03:39:30.942Z,0
2022-10-19T03:40:31.534Z,0
2022-10-19T03:41:32.126Z,0
2022-10-19T03:42:32.778Z,0
2022-10-19T03:43:33.369Z,0
2022-10-19T03:44:34.110Z,0
2022-10-19T03:45:34.699Z,0
2022-10-19T03:46:36.139Z,0
2022-10-19T03:47:36.900Z,0
2022-10-19T03:48:37.545Z,0
2022-10-19T03:49:40.240Z,0
2022-10-19T03:50:39.788Z,0
2022-10-19T03:51:40.368Z,0
2022-10-19T03:52:40.958Z,0
2022-10-19T03:53:41.604Z,0
2022-10-19T03:54:42.191Z,0
2022-10-19T03:55:42.785Z,0
2022-10-19T03:56:43.377Z,0
2022-10-19T03:57:43.969Z,0
2022-10-19T03:58:44.559Z,0
2022-10-19T03:59:45.152Z,0
2022-10-19T04:00:45.803Z,0
2022-10-19T04:01:46.530Z,0
2022-10-19T04:02:47.119Z,0
2022-10-19T04:03:47.712Z,0
2022-10-19T04:04:48.299Z,0
2022-10-19T04:05:48.891Z,0
2022-10-19T04:06:49.485Z,0
2022-10-19T04:07:50.081Z,0
2022-10-19T04:08:50.666Z,0
2022-10-19T04:09:51.258Z,0
2022-10-19T04:10:51.851Z,0
2022-10-19T04:11:52.442Z,0
2022-10-19T04:12:53.981Z,0
2022-10-19T04:13:54.616Z,0
2022-10-19T04:14:57.655Z,0
2022-10-19T04:15:56.748Z,0
2022-10-19T04:16:57.340Z,0
2022-10-19T04:17:57.989Z,0
2022-10-19T04:18:58.580Z,0
2022-10-19T04:19:59.322Z,0
2022-10-19T04:20:59.911Z,0
2022-10-19T04:22:00.501Z,0
2022-10-19T04:23:01.095Z,0
2022-10-19T04:24:01.688Z,0
2022-10-19T04:25:02.282Z,0
2022-10-19T04:26:02.878Z,0
2022-10-19T04:27:03.467Z,0
2022-10-19T04:28:04.058Z,0
2022-10-19T04:29:04.700Z,0
2022-10-19T04:30:05.269Z,0
2022-10-19T04:31:05.859Z,0
2022-10-19T04:32:06.450Z,0
2022-10-19T04:33:07.045Z,0
2022-10-19T04:34:07.639Z,0
2022-10-19T04:35:08.232Z,0
2022-10-19T04:36:08.893Z,0
2022-10-19T04:37:09.472Z,0
2022-10-19T04:38:10.066Z,0
2022-10-19T04:39:10.660Z,0
2022-10-19T04:40:14.922Z,0
2022-10-19T04:41:12.836Z,0
2022-10-19T04:42:13.432Z,0
2022-10-19T04:43:14.022Z,0
2022-10-19T04:44:14.657Z,0
2022-10-19T04:45:15.226Z,0
2022-10-19T04:46:15.817Z,0
2022-10-19T04:47:16.408Z,0
2022-10-19T04:48:16.997Z,0
2022-10-19T04:49:19.565Z,0
2022-10-19T04:50:19.173Z,0
2022-10-19T04:51:19.762Z,0
2022-10-19T04:52:20.404Z,0
2022-10-19T04:53:21.270Z,0
2022-10-19T04:54:21.871Z,0
2022-10-19T04:55:22.465Z,0
2022-10-19T04:56:23.107Z,0
2022-10-19T04:57:23.699Z,0
2022-10-19T04:58:24.342Z,0
2022-10-19T04:59:24.932Z,0
2022-10-19T05:00:25.528Z,0
2022-10-19T05:01:26.178Z,0
2022-10-19T05:02:26.771Z,0
2022-10-19T05:03:27.362Z,0
2022-10-19T05:04:27.956Z,0
2022-10-19T05:05:28.549Z,0
2022-10-19T05:06:29.139Z,0
2022-10-19T05:07:29.732Z,0
2022-10-19T05:08:30.324Z,0
2022-10-19T05:09:31.767Z,0
2022-10-19T05:10:32.358Z,0
2022-10-19T05:11:33.003Z,0
2022-10-19T05:12:33.599Z,0
2022-10-19T05:13:34.247Z,0
2022-10-19T05:14:36.751Z,0
2022-10-19T05:15:36.425Z,0
2022-10-19T05:16:37.014Z,0
2022-10-19T05:17:37.605Z,0
2022-10-19T05:18:38.198Z,0
2022-10-19T05:19:38.788Z,0
2022-10-19T05:20:39.488Z,0
2022-10-19T05:21:40.081Z,0
2022-10-19T05:22:40.677Z,0
2022-10-19T05:23:41.260Z,0
2022-10-19T05:24:41.852Z,0
2022-10-19T05:25:42.443Z,0
2022-10-19T05:26:43.037Z,0
2022-10-19T05:27:43.629Z,0
2022-10-19T05:28:44.286Z,0
2022-10-19T05:29:44.884Z,0
2022-10-19T05:30:48.983Z,0
2022-10-19T05:31:47.115Z,0
2022-10-19T05:32:48.559Z,0
2022-10-19T05:33:49.204Z,0
2022-10-19T05:34:49.794Z,0
2022-10-19T05:35:50.390Z,0
2022-10-19T05:36:50.979Z,0
2022-10-19T05:37:51.574Z,0
2022-10-19T05:38:52.166Z,0
2022-10-19T05:39:52.758Z,0
2022-10-19T05:40:53.804Z,0
2022-10-19T05:41:54.435Z,0
2022-10-19T05:42:55.076Z,0
2022-10-19T05:43:55.669Z,0
2022-10-19T05:44:56.264Z,0
2022-10-19T05:45:56.855Z,0
2022-10-19T05:46:57.447Z,0
2022-10-19T05:47:58.040Z,0
2022-10-19T05:48:58.637Z,0
2022-10-19T05:50:00.036Z,0
2022-10-19T05:51:00.618Z,0
2022-10-19T05:52:01.214Z,0
2022-10-19T05:53:01.806Z,0
2022-10-19T05:54:02.397Z,0
2022-10-19T05:55:03.006Z,0
2022-10-19T05:56:03.586Z,0
2022-10-19T05:57:04.176Z,0
2022-10-19T05:58:04.772Z,0
2022-10-19T05:59:05.364Z,0
2022-10-19T06:00:05.956Z,0
2022-10-19T06:01:06.549Z,0
2022-10-19T06:02:07.173Z,0
2022-10-19T06:03:07.746Z,0
2022-10-19T06:04:08.371Z,0
2022-10-19T06:05:08.953Z,0
2022-10-19T06:06:09.547Z,0
2022-10-19T06:07:10.138Z,0
2022-10-19T06:08:10.732Z,0
2022-10-19T06:09:11.324Z,0
2022-10-19T06:10:11.918Z,0
2022-10-19T06:11:12.508Z,0
2022-10-19T06:12:15.738Z,0
2022-10-19T06:13:14.739Z,0
2022-10-19T06:14:15.339Z,0
2022-10-19T06:15:15.927Z,0
2022-10-19T06:16:16.522Z,0
2022-10-19T06:17:17.111Z,0
2022-10-19T06:18:17.705Z,0
2022-10-19T06:19:18.298Z,0
2022-10-19T06:20:18.891Z,0
2022-10-19T06:21:19.483Z,0
2022-10-19T06:22:20.078Z,0
2022-10-19T06:23:20.670Z,0
2022-10-19T06:24:21.263Z,0
2022-10-19T06:25:21.857Z,0
2022-10-19T06:26:22.449Z,0
2022-10-19T06:27:23.089Z,0
2022-10-19T06:28:23.675Z,0
2022-10-19T06:29:24.331Z,0
2022-10-19T06:30:24.958Z,0
2022-10-19T06:31:25.529Z,0
2022-10-19T06:32:26.120Z,0
2022-10-19T06:33:26.762Z,0
2022-10-19T06:34:27.396Z,0
2022-10-19T06:35:27.995Z,0
2022-10-19T06:36:28.587Z,0
2022-10-19T06:37:29.237Z,0
2022-10-19T06:38:29.884Z,0
2022-10-19T06:39:30.475Z,0
2022-10-19T06:40:31.112Z,0
2022-10-19T06:41:31.706Z,0
2022-10-19T06:42:32.298Z,0
2022-10-19T06:43:32.939Z,0
2022-10-19T06:44:33.533Z,0
2022-10-19T06:45:35.986Z,0
2022-10-19T06:46:35.717Z,0
2022-10-19T06:47:36.717Z,0
2022-10-19T06:48:37.442Z,0
2022-10-19T06:49:38.034Z,0
2022-10-19T06:50:38.679Z,0
2022-10-19T06:51:39.319Z,0
2022-10-19T06:52:40.003Z,0
2022-10-19T06:53:40.616Z,0
2022-10-19T06:54:41.214Z,0
2022-10-19T06:55:41.858Z,0
2022-10-19T06:56:42.517Z,0
2022-10-19T06:57:43.103Z,0
2022-10-19T06:58:43.699Z,0
2022-10-19T06:59:44.346Z,0
2022-10-19T07:00:45.028Z,0
2022-10-19T07:01:45.637Z,0
2022-10-19T07:02:46.286Z,0
2022-10-19T07:03:46.908Z,4
2022-10-19T07:04:47.501Z,4
2022-10-19T07:05:48.151Z,4
2022-10-19T07:06:48.859Z,4
2022-10-19T07:07:49.561Z,4
2022-10-19T07:08:50.466Z,0
2022-10-19T07:09:51.112Z,0
2022-10-19T07:10:51.786Z,0
2022-10-19T07:11:52.403Z,0
2022-10-19T07:12:53.052Z,0
2022-10-19T07:13:53.671Z,0
2022-10-19T07:14:54.259Z,0
2022-10-19T07:15:54.851Z,0
2022-10-19T07:16:55.596Z,0
2022-10-19T07:17:56.192Z,0
2022-10-19T07:18:56.783Z,0
2022-10-19T07:19:57.374Z,0
2022-10-19T07:20:57.973Z,0
2022-10-19T07:21:58.623Z,0
2022-10-19T07:22:59.242Z,0
2022-10-19T07:23:59.837Z,0
2022-10-19T07:25:00.440Z,0
2022-10-19T07:26:01.031Z,0
2022-10-19T07:27:01.683Z,0
2022-10-19T07:28:02.277Z,0
2022-10-19T07:29:02.868Z,0
2022-10-19T07:30:03.518Z,0
2022-10-19T07:31:04.130Z,0
2022-10-19T07:32:04.726Z,0
2022-10-19T07:33:05.403Z,0
2022-10-19T07:34:06.032Z,0
2022-10-19T07:35:06.707Z,0
2022-10-19T07:36:07.329Z,0
2022-10-19T07:37:07.978Z,0
2022-10-19T07:38:08.590Z,0
2022-10-19T07:39:09.195Z,0
2022-10-19T07:40:09.787Z,0
2022-10-19T07:41:10.383Z,0
2022-10-19T07:42:11.002Z,0
2022-10-19T07:43:11.635Z,0
2022-10-19T07:44:15.523Z,0
2022-10-19T07:45:13.970Z,0
2022-10-19T07:46:14.638Z,0
2022-10-19T07:47:15.245Z,0
2022-10-19T07:48:16.093Z,0
2022-10-19T07:49:16.709Z,0
2022-10-19T07:50:17.302Z,0
2022-10-19T07:51:17.932Z,0
2022-10-19T07:52:18.586Z,0
2022-10-19T07:53:19.178Z,0
2022-10-19T07:54:20.029Z,0
2022-10-19T07:55:20.644Z,0
2022-10-19T07:56:21.289Z,0
2022-10-19T07:57:22.209Z,0
2022-10-19T07:58:22.881Z,0
2022-10-19T07:59:23.547Z,0
2022-10-19T08:00:24.312Z,0
2022-10-19T08:01:25.004Z,0
2022-10-19T08:02:30.887Z,0
2022-10-19T08:04:58.889Z,0
2022-10-19T08:05:30.406Z,0
2022-10-19T08:06:30.976Z,0
2022-10-19T08:07:31.571Z,0
2022-10-19T08:08:32.232Z,4
2022-10-19T08:09:51.952Z,4
2022-10-19T08:10:34.350Z,4
2022-10-19T08:11:34.946Z,0
2022-10-19T08:12:35.942Z,0
2022-10-19T08:13:36.787Z,0
2022-10-19T08:14:37.375Z,4
2022-10-19T08:15:37.971Z,4
2022-10-19T08:16:38.560Z,0
2022-10-19T08:17:39.152Z,0
2022-10-19T08:18:39.746Z,0
2022-10-19T08:19:40.340Z,4
2022-10-19T08:20:40.931Z,4
2022-10-19T08:21:41.524Z,4
2022-10-19T08:22:42.178Z,4
2022-10-19T08:23:42.773Z,4
2022-10-19T08:24:43.365Z,4
2022-10-19T08:25:44.008Z,4
2022-10-19T08:26:44.604Z,4
2022-10-19T08:27:45.196Z,4
2022-10-19T08:28:45.787Z,4
2022-10-19T08:29:46.442Z,0
2022-10-19T08:30:47.033Z,4
2022-10-19T08:31:47.628Z,4
2022-10-19T08:32:48.221Z,4
2022-10-19T08:33:48.811Z,4
2022-10-19T08:34:49.406Z,4
2022-10-19T08:35:50.058Z,4
2022-10-19T08:36:50.913Z,4
2022-10-19T08:37:51.902Z,4
2022-10-19T08:38:52.613Z,0
2022-10-19T08:39:53.210Z,0
2022-10-19T08:40:53.800Z,0
2022-10-19T08:41:54.394Z,0
2022-10-19T08:42:54.986Z,0
2022-10-19T08:43:55.631Z,4
2022-10-19T08:44:56.223Z,4
2022-10-19T08:45:56.877Z,4
2022-10-19T08:47:00.444Z,4
2022-10-19T08:47:59.907Z,4
2022-10-19T08:49:00.500Z,4
2022-10-19T08:50:01.153Z,0
2022-10-19T08:51:01.747Z,0
2022-10-19T08:52:02.399Z,0
2022-10-19T08:53:02.989Z,4
2022-10-19T08:54:03.591Z,4
2022-10-19T08:55:04.187Z,0
2022-10-19T08:56:04.937Z,0
2022-10-19T08:57:05.562Z,0
2022-10-19T08:58:06.155Z,0
2022-10-19T08:59:06.808Z,0
2022-10-19T09:00:07.457Z,0
2022-10-19T09:01:08.051Z,0
2022-10-19T09:02:08.644Z,0
2022-10-19T09:03:09.244Z,0
2022-10-19T09:04:09.827Z,4
2022-10-19T09:05:10.421Z,0
2022-10-19T09:06:11.011Z,4
2022-10-19T09:07:11.606Z,0
2022-10-19T09:08:16.839Z,4
2022-10-19T09:09:14.588Z,4
2022-10-19T09:10:15.176Z,4
2022-10-19T09:11:15.822Z,4
2022-10-19T09:12:16.415Z,4
2022-10-19T09:13:17.010Z,4
2022-10-19T09:14:17.665Z,4
2022-10-19T09:15:18.256Z,4
2022-10-19T09:16:18.911Z,4
2022-10-19T09:17:19.501Z,4
2022-10-19T09:18:20.098Z,4
2022-10-19T09:19:20.691Z,4
2022-10-19T09:20:21.281Z,4
2022-10-19T09:21:28.163Z,0
2022-10-19T09:22:23.459Z,0
2022-10-19T09:23:24.052Z,0
2022-10-19T09:24:24.646Z,0
2022-10-19T09:25:25.238Z,0
2022-10-19T09:26:25.834Z,0
2022-10-19T09:27:26.637Z,0
2022-10-19T09:28:31.472Z,4
2022-10-19T09:29:28.816Z,4
2022-10-19T09:30:29.405Z,4
2022-10-19T09:31:31.738Z,4
2022-10-19T09:32:31.775Z,8
2022-10-19T09:33:32.614Z,4
2022-10-19T09:34:33.209Z,4
2022-10-19T09:35:33.803Z,4
2022-10-19T09:36:50.065Z,4
2022-10-19T09:37:35.989Z,4
2022-10-19T09:38:36.579Z,4
2022-10-19T09:39:37.171Z,4
2022-10-19T09:40:37.763Z,8
2022-10-19T09:41:38.360Z,8
2022-10-19T09:42:38.955Z,8
2022-10-19T09:43:39.544Z,8
2022-10-19T09:44:40.143Z,8
2022-10-19T09:45:40.740Z,4
2022-10-19T09:46:41.405Z,8
2022-10-19T09:47:42.091Z,12
2022-10-19T09:48:42.686Z,8
2022-10-19T09:49:43.287Z,4
2022-10-19T09:50:43.957Z,4
2022-10-19T09:51:44.544Z,8
2022-10-19T09:52:45.139Z,4
2022-10-19T09:53:45.734Z,8
2022-10-19T09:54:46.329Z,8
2022-10-19T09:55:46.923Z,8
2022-10-19T09:56:47.513Z,8
2022-10-19T09:57:48.263Z,8
2022-10-19T09:58:48.857Z,4
2022-10-19T09:59:49.510Z,8
2022-10-19T10:00:50.115Z,8
2022-10-19T10:01:50.844Z,8
2022-10-19T10:02:51.484Z,8
2022-10-19T10:03:55.232Z,8
2022-10-19T10:04:53.669Z,8
2022-10-19T10:05:54.320Z,8
2022-10-19T10:06:54.918Z,4
2022-10-19T10:07:55.514Z,8
2022-10-19T10:08:56.309Z,8
2022-10-19T10:09:56.958Z,8
2022-10-19T10:10:57.551Z,8
2022-10-19T10:11:58.209Z,8
2022-10-19T10:12:58.805Z,8
2022-10-19T10:13:59.399Z,8
2022-10-19T10:14:59.991Z,4
2022-10-19T10:16:00.591Z,8
2022-10-19T10:17:01.233Z,8
2022-10-19T10:18:01.827Z,4
2022-10-19T10:19:02.433Z,4
2022-10-19T10:20:03.037Z,4
2022-10-19T10:21:05.829Z,4
2022-10-19T10:22:05.229Z,4
2022-10-19T10:23:05.820Z,4
2022-10-19T10:24:06.424Z,4
2022-10-19T10:25:07.025Z,4
2022-10-19T10:26:07.620Z,4
2022-10-19T10:27:08.247Z,4
2022-10-19T10:28:08.821Z,4
2022-10-19T10:29:09.425Z,4
2022-10-19T10:30:10.021Z,4
2022-10-19T10:31:10.617Z,8
2022-10-19T10:32:11.216Z,8
2022-10-19T10:33:20.528Z,8
2022-10-19T10:34:28.394Z,8
2022-10-19T10:35:15.193Z,8
2022-10-19T10:36:15.803Z,8
2022-10-19T10:37:16.398Z,8
2022-10-19T10:38:17.004Z,4
2022-10-19T10:39:17.616Z,8
2022-10-19T10:40:21.307Z,8
2022-10-19T10:41:19.806Z,8
2022-10-19T10:42:20.464Z,8
2022-10-19T10:43:21.049Z,8
2022-10-19T10:44:21.641Z,8
2022-10-19T10:45:22.228Z,8
2022-10-19T10:46:22.821Z,4
2022-10-19T10:47:23.412Z,8
2022-10-19T10:48:24.003Z,8
2022-10-19T10:49:24.595Z,8
2022-10-19T10:50:25.189Z,8
2022-10-19T10:51:25.782Z,4
2022-10-19T10:52:26.375Z,8
2022-10-19T10:53:26.969Z,8
2022-10-19T10:54:27.562Z,8
2022-10-19T10:55:28.153Z,8
2022-10-19T10:56:28.747Z,8
2022-10-19T10:57:30.195Z,8
2022-10-19T10:58:30.790Z,8
2022-10-19T10:59:31.382Z,4
2022-10-19T11:00:32.019Z,8
2022-10-19T11:01:32.720Z,8
2022-10-19T11:02:33.316Z,8
2022-10-19T11:03:33.963Z,4
2022-10-19T11:04:34.557Z,8
2022-10-19T11:05:35.150Z,4
2022-10-19T11:06:36.908Z,4
2022-10-19T11:07:37.822Z,8
2022-10-19T11:08:38.684Z,4
2022-10-19T11:09:39.288Z,4
2022-10-19T11:10:39.886Z,4
2022-10-19T11:11:40.476Z,8
2022-10-19T11:12:41.120Z,8
2022-10-19T11:13:42.514Z,8
2022-10-19T11:14:43.101Z,4
2022-10-19T11:15:43.696Z,8
2022-10-19T11:16:44.443Z,8
2022-10-19T11:17:45.037Z,8
2022-10-19T11:18:45.629Z,8
2022-10-19T11:19:46.296Z,8
2022-10-19T11:20:46.874Z,8
2022-10-19T11:21:47.469Z,8
2022-10-19T11:22:48.063Z,12
2022-10-19T11:23:48.656Z,12
2022-10-19T11:24:49.279Z,8
2022-10-19T11:25:49.865Z,8
2022-10-19T11:26:50.532Z,8
2022-10-19T11:27:51.173Z,12
2022-10-19T11:28:51.779Z,8
2022-10-19T11:29:52.386Z,8
2022-10-19T11:30:53.781Z,12
2022-10-19T11:31:54.443Z,8
2022-10-19T11:32:55.893Z,8
2022-10-19T11:33:56.495Z,8
2022-10-19T11:34:57.081Z,8
2022-10-19T11:35:57.675Z,8
2022-10-19T11:36:58.430Z,8
2022-10-19T11:38:17.947Z,8
2022-10-19T11:39:00.605Z,8
2022-10-19T11:40:01.207Z,4
2022-10-19T11:41:18.592Z,8
2022-10-19T11:42:03.396Z,8
2022-10-19T11:43:03.991Z,8
2022-10-19T11:44:04.696Z,8
2022-10-19T11:45:06.259Z,8
2022-10-19T11:46:06.864Z,8
2022-10-19T11:47:07.480Z,8
2022-10-19T11:48:08.087Z,8
2022-10-19T11:49:08.831Z,8
2022-10-19T11:51:20.960Z,8
2022-10-19T11:52:11.677Z,8
2022-10-19T11:53:12.273Z,8
2022-10-19T11:54:14.870Z,4
2022-10-19T11:55:14.560Z,8
2022-10-19T11:56:15.155Z,12
2022-10-19T11:57:15.768Z,8
2022-10-19T11:58:16.384Z,4
2022-10-19T11:59:16.973Z,4
2022-10-19T12:00:37.606Z,8
2022-10-19T12:01:19.163Z,8
2022-10-19T12:02:19.799Z,8
2022-10-19T12:03:20.409Z,8
2022-10-19T12:04:21.001Z,12
2022-10-19T12:05:21.593Z,12
2022-10-19T12:06:22.200Z,12
2022-10-19T12:07:22.794Z,12
2022-10-19T12:08:23.704Z,12
2022-10-19T12:09:24.430Z,12
2022-10-19T12:10:25.041Z,12
2022-10-19T12:11:25.633Z,12
2022-10-19T12:12:26.224Z,12
2022-10-19T12:13:26.816Z,12
2022-10-19T12:14:27.471Z,12
2022-10-19T12:15:28.066Z,8
2022-10-19T12:16:28.659Z,12
2022-10-19T12:17:29.313Z,12
2022-10-19T12:18:29.907Z,16
2022-10-19T12:19:30.506Z,16
2022-10-19T12:20:31.108Z,16
2022-10-19T12:21:31.694Z,12
2022-10-19T12:22:32.289Z,12
2022-10-19T12:23:32.878Z,16
2022-10-19T12:24:33.532Z,20
2022-10-19T12:25:34.125Z,16
2022-10-19T12:26:34.723Z,20
2022-10-19T12:27:35.685Z,16
2022-10-19T12:28:36.591Z,24
2022-10-19T12:29:37.182Z,20
2022-10-19T12:30:37.773Z,16
2022-10-19T12:31:38.425Z,16
2022-10-19T12:32:39.033Z,16
2022-10-19T12:33:39.627Z,16
2022-10-19T12:34:40.216Z,20
2022-10-19T12:35:40.856Z,20
2022-10-19T12:36:41.449Z,16
2022-10-19T12:37:42.100Z,16
2022-10-19T12:38:45.979Z,16
2022-10-19T12:39:44.333Z,16
2022-10-19T12:40:44.929Z,16
2022-10-19T12:41:45.630Z,20
2022-10-19T12:42:46.219Z,20
2022-10-19T12:43:47.663Z,20
2022-10-19T12:44:48.256Z,24
2022-10-19T12:45:48.849Z,24
2022-10-19T12:46:53.000Z,24
2022-10-19T12:47:51.887Z,28
2022-10-19T12:48:52.479Z,32
2022-10-19T12:49:53.074Z,36
2022-10-19T12:50:53.674Z,20
2022-10-19T12:51:54.324Z,28
2022-10-19T12:52:54.919Z,24
2022-10-19T12:53:55.512Z,20
2022-10-19T12:54:56.112Z,20
2022-10-19T12:55:56.714Z,28
2022-10-19T12:56:57.458Z,24
2022-10-19T12:57:58.054Z,28
2022-10-19T12:58:58.649Z,32
2022-10-19T12:59:59.244Z,32
2022-10-19T13:00:59.879Z,28
2022-10-19T13:02:00.478Z,28
2022-10-19T13:03:01.078Z,28
2022-10-19T13:04:01.741Z,24
2022-10-19T13:05:02.359Z,32
2022-10-19T13:06:02.926Z,20
2022-10-19T13:07:03.528Z,16
2022-10-19T13:08:04.122Z,24
2022-10-19T13:09:04.826Z,32
2022-10-19T13:10:05.415Z,28
2022-10-19T13:11:06.064Z,32
2022-10-19T13:12:06.666Z,28
2022-10-19T13:13:07.264Z,20
2022-10-19T13:14:07.856Z,24
2022-10-19T13:15:08.465Z,16
2022-10-19T13:16:09.057Z,24
2022-10-19T13:17:09.711Z,16
2022-10-19T13:18:10.315Z,20
2022-10-19T13:19:10.912Z,28
2022-10-19T13:20:11.509Z,20
2022-10-19T13:21:12.121Z,28
2022-10-19T13:22:12.713Z,16
2022-10-19T13:23:13.325Z,12
2022-10-19T13:24:13.920Z,12
2022-10-19T13:25:14.525Z,12
2022-10-19T13:26:15.189Z,12
2022-10-19T13:27:15.784Z,12
2022-10-19T13:28:16.393Z,12
2022-10-19T13:29:17.000Z,8
2022-10-19T13:30:17.606Z,12
2022-10-19T13:31:18.203Z,12
2022-10-19T13:32:18.812Z,8
2022-10-19T13:33:19.405Z,8
2022-10-19T13:34:20.014Z,12
2022-10-19T13:35:20.605Z,12
2022-10-19T13:36:21.197Z,12
2022-10-19T13:37:21.817Z,12
2022-10-19T13:38:22.480Z,12
2022-10-19T13:39:23.143Z,12
2022-10-19T13:40:24.850Z,12
2022-10-19T13:41:25.402Z,8
2022-10-19T13:42:26.044Z,8
2022-10-19T13:43:26.647Z,12
2022-10-19T13:44:27.238Z,12
2022-10-19T13:45:27.832Z,8
2022-10-19T13:46:28.422Z,12
2022-10-19T13:47:29.057Z,12
2022-10-19T13:48:29.706Z,12
2022-10-19T13:49:32.673Z,12
2022-10-19T13:50:32.698Z,12
2022-10-19T13:51:33.306Z,16
2022-10-19T13:52:34.204Z,12
2022-10-19T13:53:34.986Z,12
2022-10-19T13:54:35.588Z,12
2022-10-19T13:55:36.186Z,16
2022-10-19T13:57:38.345Z,12
2022-10-19T13:58:38.942Z,16
2022-10-19T13:59:39.587Z,12
2022-10-19T14:00:40.190Z,20
2022-10-19T14:01:40.878Z,16
2022-10-19T14:02:41.506Z,20
2022-10-19T14:03:42.098Z,40
2022-10-19T14:04:42.711Z,36
2022-10-19T14:05:43.386Z,52
2022-10-19T14:06:43.981Z,60
2022-10-19T14:07:44.588Z,68
2022-10-19T14:08:45.195Z,60
2022-10-19T14:09:45.783Z,60
2022-10-19T14:11:01.825Z,40
2022-10-19T14:11:47.977Z,72
2022-10-19T14:12:48.580Z,72
2022-10-19T14:13:49.180Z,68
2022-10-19T14:14:49.773Z,64
2022-10-19T14:15:50.366Z,44
2022-10-19T14:16:50.983Z,76
2022-10-19T14:17:51.622Z,72
2022-10-19T14:18:52.285Z,24
2022-10-19T14:19:52.876Z,16
2022-10-19T14:20:53.478Z,16
2022-10-19T14:21:54.085Z,24
2022-10-19T14:22:54.676Z,40
2022-10-19T14:23:55.288Z,36
2022-10-19T14:24:55.876Z,36
2022-10-19T14:25:56.489Z,40
2022-10-19T14:26:57.094Z,20
2022-10-19T14:27:57.696Z,20
2022-10-19T14:28:58.378Z,36
2022-10-19T14:29:58.982Z,84
2022-10-19T14:30:59.570Z,36
2022-10-19T14:32:00.176Z,24
2022-10-19T14:33:02.341Z,28
2022-10-19T14:34:02.378Z,16
2022-10-19T14:35:05.994Z,16
2022-10-19T14:36:04.584Z,16
2022-10-19T14:37:05.318Z,16
2022-10-19T14:38:05.904Z,16
2022-10-19T14:39:06.496Z,16
2022-10-19T14:40:07.092Z,16
2022-10-19T14:41:07.679Z,16
2022-10-19T14:42:08.429Z,20
2022-10-19T14:43:09.070Z,20
2022-10-19T14:44:09.670Z,16
2022-10-19T14:45:10.261Z,20
2022-10-19T14:46:10.850Z,20
2022-10-19T14:47:11.500Z,20
2022-10-19T14:48:12.096Z,16
2022-10-19T14:49:12.759Z,24
2022-10-19T14:50:14.201Z,24
2022-10-19T14:51:14.796Z,16
2022-10-19T14:52:15.437Z,16
2022-10-19T14:53:15.998Z,16
2022-10-19T14:54:16.602Z,16
2022-10-19T14:55:17.958Z,16